Time;durP1;ratioP1;P1;durP2;ratioP2;P2;SDS_P1;SDS_P2;PMS_P1;PMS_P2;Temp;Humidity;BMP_temperature;BMP_pressure;BME280_temperature;BME280_humidity;BME280_pressure;Samples;Min_cycle;Max_cycle;Signal;HPM_P1;HPM_P2
2022/02/15 00:00:34;;;;;;;;;84.75;69.00;12.70;51.80;;;;;;4956501;28;8819;-71
2022/02/15 00:03:01;;;;;;;;;86.00;75.00;12.70;51.60;;;;;;4957424;28;8942;-69
2022/02/15 00:05:27;;;;;;;;;84.50;69.00;12.70;51.70;;;;;;4957393;28;8792;-69
2022/02/15 00:07:54;;;;;;;;;84.50;67.00;12.70;51.80;;;;;;4957409;28;8879;-70
2022/02/15 00:10:21;;;;;;;;;85.50;69.75;12.50;53.20;;;;;;4957657;28;8802;-69
2022/02/15 00:12:47;;;;;;;;;91.75;76.50;12.60;52.60;;;;;;4957639;28;8814;-70
2022/02/15 00:15:13;;;;;;;;;102.25;92.25;12.60;52.40;;;;;;4957313;28;8764;-69
2022/02/15 00:17:40;;;;;;;;;109.50;101.75;12.50;52.10;;;;;;4957145;28;8784;-69
2022/02/15 00:20:09;;;;;;;;;121.25;108.25;12.50;52.30;;;;;;4957125;28;8785;-69
2022/02/15 00:22:35;;;;;;;;;125.75;116.50;12.40;52.60;;;;;;4956200;28;8871;-70
2022/02/15 00:25:01;;;;;;;;;124.00;110.00;12.30;52.50;;;;;;4957137;28;8796;-71
2022/02/15 00:27:27;;;;;;;;;123.50;116.75;12.50;52.10;;;;;;4957400;28;9455;-71
2022/02/15 00:29:54;;;;;;;;;125.25;116.50;12.70;51.80;;;;;;4957077;28;8780;-71
2022/02/15 00:32:19;;;;;;;;;129.75;121.75;12.70;51.50;;;;;;4955710;28;8808;-69
2022/02/15 00:34:45;;;;;;;;;124.50;115.25;12.80;51.00;;;;;;4956906;28;8781;-71
2022/02/15 00:37:11;;;;;;;;;144.25;133.25;12.80;51.20;;;;;;4957219;28;8806;-72
2022/02/15 00:39:37;;;;;;;;;133.25;124.00;12.80;51.00;;;;;;4956840;28;8781;-70
2022/02/15 00:42:03;;;;;;;;;147.25;135.50;12.80;51.20;;;;;;4957026;28;8919;-70
2022/02/15 00:44:31;;;;;;;;;135.75;127.25;12.80;51.10;;;;;;4956984;28;8886;-70
2022/02/15 00:46:58;;;;;;;;;130.00;121.50;12.80;51.10;;;;;;4956731;28;8867;-71
2022/02/15 00:49:24;;;;;;;;;130.75;117.50;12.90;51.10;;;;;;4956769;28;8803;-70
2022/02/15 00:51:49;;;;;;;;;130.25;123.25;12.80;51.10;;;;;;4956620;28;9459;-70
2022/02/15 00:54:16;;;;;;;;;117.75;111.75;12.60;51.20;;;;;;4956628;28;8772;-70
2022/02/15 00:56:42;;;;;;;;;108.00;103.25;12.60;51.50;;;;;;4956805;28;8800;-71
2022/02/15 00:59:09;;;;;;;;;114.75;102.50;12.70;51.20;;;;;;4956553;28;8784;-71
2022/02/15 01:01:37;;;;;;;;;126.75;110.75;12.70;51.10;;;;;;4955835;28;8840;-70
2022/02/15 01:04:04;;;;;;;;;107.00;97.75;12.70;51.10;;;;;;4956689;28;8838;-71
2022/02/15 01:06:30;;;;;;;;;108.75;97.00;12.70;51.50;;;;;;4956435;28;8784;-70
2022/02/15 01:08:56;;;;;;;;;94.50;79.75;12.50;51.70;;;;;;4952345;28;8784;-71
2022/02/15 01:11:22;;;;;;;;;100.00;90.00;12.50;51.50;;;;;;4937060;29;9030;-70
2022/02/15 01:13:47;;;;;;;;;102.00;90.50;12.60;51.10;;;;;;4937215;29;8897;-70
2022/02/15 01:16:13;;;;;;;;;98.00;84.75;12.70;50.90;;;;;;4937423;29;8763;-70
2022/02/15 01:18:40;;;;;;;;;92.75;81.25;12.70;50.90;;;;;;4937165;29;8889;-73
2022/02/15 01:21:06;;;;;;;;;93.50;86.25;12.70;51.00;;;;;;4937315;29;8822;-70
2022/02/15 01:23:32;;;;;;;;;90.00;75.75;12.60;51.00;;;;;;4937146;29;8802;-71
2022/02/15 01:25:58;;;;;;;;;91.25;80.25;12.50;51.40;;;;;;4937087;29;8775;-71
2022/02/15 01:28:24;;;;;;;;;89.75;81.25;12.50;51.30;;;;;;4937077;29;8779;-71
2022/02/15 01:30:50;;;;;;;;;91.25;77.50;12.50;51.20;;;;;;4936968;29;8783;-69
2022/02/15 01:33:16;;;;;;;;;88.50;73.75;12.50;51.40;;;;;;4936904;29;8811;-71
2022/02/15 01:35:41;;;;;;;;;87.75;74.00;12.40;51.60;;;;;;4936983;29;9547;-72
2022/02/15 01:38:08;;;;;;;;;88.25;76.50;12.50;51.70;;;;;;4937247;29;8845;-71
2022/02/15 01:40:34;;;;;;;;;90.25;80.25;12.40;51.40;;;;;;4936785;29;8830;-71
2022/02/15 01:43:00;;;;;;;;;87.75;72.50;12.40;51.50;;;;;;4937023;29;8786;-72
2022/02/15 01:45:27;;;;;;;;;84.50;68.00;12.40;51.50;;;;;;4935913;29;8905;-71
2022/02/15 01:47:53;;;;;;;;;86.50;67.00;12.40;51.50;;;;;;4936898;29;8853;-71
2022/02/15 01:50:19;;;;;;;;;82.75;63.75;12.40;51.40;;;;;;4937103;29;8830;-69
2022/02/15 01:52:45;;;;;;;;;86.75;67.50;12.40;51.50;;;;;;4937078;29;9457;-71
2022/02/15 01:55:14;;;;;;;;;83.00;66.50;12.50;51.30;;;;;;4937048;29;8837;-70
2022/02/15 01:57:40;;;;;;;;;82.75;64.25;12.40;51.40;;;;;;4936841;29;8841;-71
2022/02/15 02:00:09;;;;;;;;;73.75;61.00;12.50;51.40;;;;;;4937009;29;8775;-71
2022/02/15 02:02:36;;;;;;;;;74.00;60.50;12.30;51.30;;;;;;4936967;29;9511;-71
2022/02/15 02:07:48;;;;;;;;;78.75;61.75;12.20;51.80;;;;;;4936837;29;8771;-71
2022/02/15 02:10:14;;;;;;;;;75.25;59.50;12.30;52.00;;;;;;4936658;29;8822;-70
2022/02/15 02:12:40;;;;;;;;;71.75;56.75;12.20;51.90;;;;;;4938984;29;8834;-70
2022/02/15 02:15:18;;;;;;;;;77.00;60.75;12.20;51.90;;;;;;4940537;29;8866;-70
2022/02/15 02:17:44;;;;;;;;;72.50;58.00;11.90;53.20;;;;;;4940370;29;8783;-73
2022/02/15 02:20:11;;;;;;;;;74.50;58.25;11.60;53.60;;;;;;4940227;29;8783;-70
2022/02/15 02:22:37;;;;;;;;;83.50;65.25;11.80;53.40;;;;;;4940455;29;9441;-71
2022/02/15 02:25:04;;;;;;;;;76.50;62.75;11.90;53.00;;;;;;4940136;29;8794;-70
2022/02/15 02:27:33;;;;;;;;;80.00;62.50;12.00;52.40;;;;;;4940361;29;8783;-70
2022/02/15 02:30:00;;;;;;;;;79.00;62.25;12.00;52.10;;;;;;4939141;29;8881;-71
2022/02/15 02:32:28;;;;;;;;;76.50;60.00;12.10;51.80;;;;;;4939860;29;8937;-73
2022/02/15 02:34:56;;;;;;;;;78.25;66.25;12.00;51.90;;;;;;4940048;29;8913;-71
2022/02/15 02:37:23;;;;;;;;;82.50;64.00;12.10;51.90;;;;;;4940006;29;8902;-71
2022/02/15 02:39:53;;;;;;;;;78.25;61.00;12.00;52.00;;;;;;4940020;29;8771;-71
2022/02/15 02:42:22;;;;;;;;;83.25;64.00;12.10;52.00;;;;;;4939712;29;8830;-72
2022/02/15 02:44:49;;;;;;;;;79.75;61.75;11.90;52.10;;;;;;4939886;29;8895;-71
2022/02/15 02:47:15;;;;;;;;;87.50;75.00;11.60;52.70;;;;;;4940032;29;8803;-71
2022/02/15 02:49:41;;;;;;;;;83.25;66.00;11.50;53.70;;;;;;4939777;29;8801;-72
2022/02/15 02:52:07;;;;;;;;;81.50;66.50;11.60;53.10;;;;;;4939721;29;8817;-71
2022/02/15 02:54:33;;;;;;;;;85.50;66.25;11.80;52.40;;;;;;4939866;29;9629;-73
2022/02/15 02:57:02;;;;;;;;;92.50;79.75;11.80;52.30;;;;;;4939809;29;8909;-71
2022/02/15 02:59:31;;;;;;;;;85.50;73.50;11.70;52.30;;;;;;4939570;29;8801;-71
2022/02/15 03:01:57;;;;;;;;;91.50;77.00;11.70;52.80;;;;;;4939647;29;8860;-69
2022/02/15 03:04:23;;;;;;;;;90.00;78.25;11.70;52.70;;;;;;4939412;29;8775;-70
2022/02/15 03:06:49;;;;;;;;;86.50;71.00;11.80;52.40;;;;;;4939419;29;8799;-70
2022/02/15 03:09:15;;;;;;;;;87.25;73.50;11.90;51.90;;;;;;4938522;29;8795;-70
2022/02/15 03:11:41;;;;;;;;;79.75;61.25;11.70;52.10;;;;;;4939461;29;8877;-70
2022/02/15 03:14:07;;;;;;;;;79.75;63.25;11.40;52.80;;;;;;4939364;29;8799;-71
2022/02/15 03:16:33;;;;;;;;;79.50;62.75;11.40;53.00;;;;;;4939240;29;8918;-71
2022/02/15 03:18:59;;;;;;;;;78.75;61.25;11.60;52.50;;;;;;4939449;29;9484;-74
2022/02/15 03:21:25;;;;;;;;;74.50;58.25;11.60;52.00;;;;;;4939108;29;8978;-73
2022/02/15 03:23:52;;;;;;;;;74.25;58.50;11.40;52.30;;;;;;4938459;29;8803;-73
2022/02/15 03:26:18;;;;;;;;;67.00;56.00;11.40;52.70;;;;;;4939098;29;8802;-72
2022/02/15 03:28:44;;;;;;;;;67.75;54.50;11.30;53.00;;;;;;4939248;29;8770;-70
2022/02/15 03:31:10;;;;;;;;;67.50;54.25;11.40;52.80;;;;;;4939031;29;8810;-70
2022/02/15 03:33:36;;;;;;;;;68.75;55.00;11.40;52.40;;;;;;4938760;29;8835;-71
2022/02/15 03:36:03;;;;;;;;;73.25;58.50;11.10;52.90;;;;;;4938966;29;8787;-71
2022/02/15 03:38:29;;;;;;;;;72.25;56.75;11.00;53.00;;;;;;4939146;29;8782;-70
2022/02/15 03:43:39;;;;;;;;;75.50;59.75;11.10;53.30;;;;;;4938851;29;9386;-71
2022/02/15 03:46:05;;;;;;;;;73.00;57.75;10.90;53.70;;;;;;4938678;29;8802;-71
2022/02/15 03:48:31;;;;;;;;;77.00;61.00;11.20;53.10;;;;;;4938595;29;8786;-70
2022/02/15 03:50:57;;;;;;;;;70.50;55.25;11.40;52.50;;;;;;4938568;29;8787;-70
2022/02/15 03:53:23;;;;;;;;;66.25;54.25;11.30;52.70;;;;;;4938584;29;8897;-70
2022/02/15 03:55:49;;;;;;;;;63.00;51.50;11.30;52.70;;;;;;4938748;29;8791;-71
2022/02/15 03:58:15;;;;;;;;;69.50;53.25;11.20;52.50;;;;;;4938698;29;8809;-70
2022/02/15 04:00:41;;;;;;;;;63.00;52.00;11.30;52.40;;;;;;4938368;29;9450;-72
2022/02/15 04:03:07;;;;;;;;;69.50;54.50;11.00;53.00;;;;;;4938599;29;8791;-71
2022/02/15 04:05:33;;;;;;;;;66.25;54.00;11.20;53.00;;;;;;4938553;29;8810;-73
2022/02/15 04:07:59;;;;;;;;;63.25;50.00;11.20;52.30;;;;;;4938302;29;8802;-72
2022/02/15 04:10:25;;;;;;;;;65.75;54.25;11.30;52.30;;;;;;4938481;29;8783;-73
2022/02/15 04:12:51;;;;;;;;;72.25;57.25;11.30;52.10;;;;;;4938250;29;8815;-72
2022/02/15 04:15:18;;;;;;;;;61.50;51.00;11.20;52.50;;;;;;4938505;29;8794;-73
2022/02/15 04:17:44;;;;;;;;;67.50;54.25;11.30;52.20;;;;;;4938159;29;9472;-68
2022/02/15 04:20:11;;;;;;;;;70.75;58.25;11.30;52.20;;;;;;4938148;29;8793;-69
2022/02/15 04:22:37;;;;;;;;;73.00;59.00;11.30;52.30;;;;;;4938106;29;8809;-71
2022/02/15 04:25:04;;;;;;;;;76.50;61.00;11.10;52.50;;;;;;4938086;29;8814;-70
2022/02/15 04:27:31;;;;;;;;;64.50;54.00;11.10;52.30;;;;;;4938123;29;8851;-71
2022/02/15 04:29:57;;;;;;;;;73.00;59.00;11.00;52.40;;;;;;4938075;29;8853;-71
2022/02/15 04:32:23;;;;;;;;;68.50;55.75;11.00;52.80;;;;;;4937957;29;8823;-72
2022/02/15 04:34:49;;;;;;;;;74.25;57.75;10.90;53.10;;;;;;4937658;29;8771;-71
2022/02/15 04:37:15;;;;;;;;;70.75;55.75;10.90;53.00;;;;;;4937802;29;8870;-73
2022/02/15 04:39:42;;;;;;;;;74.00;59.50;10.80;53.60;;;;;;4937708;29;8838;-71
2022/02/15 04:42:08;;;;;;;;;65.75;53.00;10.90;53.20;;;;;;4937897;29;8854;-71
2022/02/15 04:44:34;;;;;;;;;74.00;56.75;11.00;52.70;;;;;;4937923;29;8771;-71
2022/02/15 04:47:00;;;;;;;;;58.50;50.25;10.90;52.70;;;;;;4937932;29;8820;-73
2022/02/15 04:49:27;;;;;;;;;77.00;61.00;10.30;54.50;;;;;;4937579;29;8774;-71
2022/02/15 04:51:53;;;;;;;;;77.50;60.25;9.90;56.30;;;;;;4937566;29;8872;-72
2022/02/15 04:54:20;;;;;;;;;71.25;58.25;10.30;55.10;;;;;;4937811;29;9511;-71
2022/02/15 04:56:46;;;;;;;;;77.25;59.75;10.60;54.20;;;;;;4937464;29;8774;-71
2022/02/15 04:59:12;;;;;;;;;69.00;56.00;10.90;53.20;;;;;;4937546;29;8794;-71
2022/02/15 05:01:38;;;;;;;;;70.00;57.25;11.10;52.40;;;;;;4937649;29;8831;-72
2022/02/15 05:04:04;;;;;;;;;69.25;55.50;11.20;51.80;;;;;;4937476;29;8782;-73
2022/02/15 05:06:30;;;;;;;;;70.00;55.75;10.60;53.10;;;;;;4937333;29;8809;-71
2022/02/15 05:08:56;;;;;;;;;73.25;60.00;10.70;53.60;;;;;;4937351;29;8787;-72
2022/02/15 05:11:22;;;;;;;;;78.25;60.75;10.80;53.20;;;;;;4937410;29;8857;-72
2022/02/15 05:13:48;;;;;;;;;76.25;58.75;10.30;54.70;;;;;;4937277;29;8779;-72
2022/02/15 05:16:14;;;;;;;;;78.50;61.50;9.90;56.20;;;;;;4937284;29;8790;-73
2022/02/15 05:18:39;;;;;;;;;69.25;56.25;9.90;56.70;;;;;;4937161;29;8807;-71
2022/02/15 05:21:05;;;;;;;;;75.25;61.50;9.70;56.90;;;;;;4937094;29;8837;-71
2022/02/15 05:23:32;;;;;;;;;73.00;58.25;9.30;58.80;;;;;;4937220;29;8775;-72
2022/02/15 05:25:58;;;;;;;;;82.00;63.25;9.40;58.90;;;;;;4937142;29;8783;-70
2022/02/15 05:28:25;;;;;;;;;76.75;60.50;9.90;57.10;;;;;;4937176;29;8885;-72
2022/02/15 05:30:51;;;;;;;;;88.25;68.00;10.10;55.90;;;;;;4937134;29;8786;-71
2022/02/15 05:33:17;;;;;;;;;93.00;76.25;10.40;55.20;;;;;;4936860;29;8806;-71
2022/02/15 05:35:43;;;;;;;;;95.50;85.50;10.60;54.00;;;;;;4936998;29;8814;-73
2022/02/15 05:38:08;;;;;;;;;94.50;87.50;10.60;53.60;;;;;;4937022;29;8787;-71
2022/02/15 05:40:34;;;;;;;;;89.50;71.25;10.60;53.60;;;;;;4937030;29;8853;-71
2022/02/15 05:43:00;;;;;;;;;88.25;73.00;10.20;54.10;;;;;;4936959;29;8802;-73
2022/02/15 05:45:27;;;;;;;;;83.50;68.25;10.30;54.30;;;;;;4937188;29;8791;-71
2022/02/15 05:47:53;;;;;;;;;88.50;71.50;10.20;54.30;;;;;;4939640;29;8774;-71
2022/02/15 05:53:03;;;;;;;;;79.25;62.75;10.30;54.90;;;;;;4940842;29;8763;-73
2022/02/15 05:55:29;;;;;;;;;75.75;61.00;10.10;54.70;;;;;;4940654;29;8812;-73
2022/02/15 05:57:56;;;;;;;;;76.25;61.75;10.00;55.00;;;;;;4940700;29;8778;-72
2022/02/15 06:00:22;;;;;;;;;70.25;56.25;9.50;56.90;;;;;;4940848;29;8876;-72
2022/02/15 06:02:47;;;;;;;;;72.75;59.50;9.40;57.90;;;;;;4940718;29;8783;-71
2022/02/15 06:05:14;;;;;;;;;68.50;56.50;9.20;59.00;;;;;;4940536;29;8799;-70
2022/02/15 06:07:40;;;;;;;;;70.00;56.00;9.10;60.00;;;;;;4940659;29;8795;-70
2022/02/15 06:10:06;;;;;;;;;75.25;58.25;9.70;57.50;;;;;;4940686;29;8821;-71
2022/02/15 06:12:32;;;;;;;;;79.25;64.00;9.90;56.50;;;;;;4940761;29;8882;-71
2022/02/15 06:14:58;;;;;;;;;76.00;62.00;10.10;55.90;;;;;;4940381;29;8802;-72
2022/02/15 06:17:23;;;;;;;;;78.25;61.25;10.40;54.40;;;;;;4940357;29;8803;-73
2022/02/15 06:19:49;;;;;;;;;73.25;59.25;10.80;53.60;;;;;;4940439;29;8825;-72
2022/02/15 06:22:15;;;;;;;;;83.00;63.00;11.00;52.70;;;;;;4940328;29;8860;-71
2022/02/15 06:24:41;;;;;;;;;86.75;72.00;11.10;52.30;;;;;;4940290;29;8819;-71
2022/02/15 06:27:07;;;;;;;;;85.00;69.50;10.90;52.40;;;;;;4940184;29;8795;-70
2022/02/15 06:29:34;;;;;;;;;94.25;89.75;11.00;52.00;;;;;;4940198;29;8775;-71
2022/02/15 06:32:00;;;;;;;;;104.50;98.50;11.10;51.90;;;;;;4940314;29;8860;-69
2022/02/15 06:34:26;;;;;;;;;89.00;77.50;10.90;52.40;;;;;;4940233;29;8788;-71
2022/02/15 06:36:53;;;;;;;;;93.25;84.50;10.90;52.50;;;;;;4940089;29;8814;-71
2022/02/15 06:39:19;;;;;;;;;92.75;83.50;10.70;53.70;;;;;;4939976;29;8814;-71
2022/02/15 06:41:45;;;;;;;;;93.75;76.50;11.10;52.30;;;;;;4940175;29;8842;-71
2022/02/15 06:44:11;;;;;;;;;92.00;82.75;11.30;51.70;;;;;;4940052;29;8829;-71
2022/02/15 06:46:37;;;;;;;;;95.75;87.25;11.40;51.50;;;;;;4940059;29;8794;-70
2022/02/15 06:49:04;;;;;;;;;100.75;88.25;11.10;52.80;;;;;;4939820;29;8915;-70
2022/02/15 06:51:30;;;;;;;;;92.50;81.75;11.40;52.40;;;;;;4939848;29;8763;-72
2022/02/15 06:53:56;;;;;;;;;110.25;94.50;11.80;51.00;;;;;;4939866;29;8805;-72
2022/02/15 06:56:22;;;;;;;;;103.75;95.75;12.00;50.00;;;;;;4939789;29;8783;-72
2022/02/15 06:58:48;;;;;;;;;105.75;97.25;11.90;50.10;;;;;;4939516;29;8889;-70
2022/02/15 07:01:15;;;;;;;;;111.50;105.75;12.00;50.10;;;;;;4939690;29;8814;-72
2022/02/15 07:03:40;;;;;;;;;122.00;114.25;11.90;50.80;;;;;;4939470;29;8763;-70
2022/02/15 07:06:06;;;;;;;;;125.75;114.75;11.90;50.80;;;;;;4939552;29;8798;-69
2022/02/15 07:08:32;;;;;;;;;104.00;97.25;11.80;51.20;;;;;;4944166;28;8814;-68
2022/02/15 07:10:58;;;;;;;;;93.25;85.50;11.70;51.10;;;;;;4949586;28;8836;-69
2022/02/15 07:13:27;;;;;;;;;85.00;70.25;11.30;52.20;;;;;;4939196;29;8790;-69
2022/02/15 07:15:53;;;;;;;;;89.50;76.75;11.30;53.00;;;;;;4939172;29;8790;-69
2022/02/15 07:18:19;;;;;;;;;89.25;80.50;11.60;52.60;;;;;;4939436;29;8778;-69
2022/02/15 07:20:46;;;;;;;;;101.25;90.25;11.40;52.60;;;;;;4938935;29;9438;-70
2022/02/15 07:23:13;;;;;;;;;98.50;88.00;11.20;53.40;;;;;;4939146;29;8790;-70
2022/02/15 07:25:40;;;;;;;;;103.50;92.00;11.30;52.80;;;;;;4939082;29;8791;-69
2022/02/15 07:28:06;;;;;;;;;91.75;77.00;11.50;52.50;;;;;;4940792;28;8791;-70
2022/02/15 07:30:35;;;;;;;;;95.00;85.75;11.60;52.10;;;;;;4944071;28;8818;-69
2022/02/15 07:33:03;;;;;;;;;113.00;103.25;11.20;53.70;;;;;;4957831;28;9478;-71
2022/02/15 07:35:29;;;;;;;;;98.25;91.50;11.40;53.70;;;;;;4945133;28;8787;-70
2022/02/15 07:37:56;;;;;;;;;96.50;88.50;12.00;52.30;;;;;;4938616;29;8786;-71
2022/02/15 07:40:22;;;;;;;;;109.00;103.25;12.40;50.90;;;;;;4938556;29;8795;-72
2022/02/15 07:42:49;;;;;;;;;120.00;106.00;12.70;50.40;;;;;;4938612;29;9464;-70
2022/02/15 07:45:19;;;;;;;;;108.00;98.75;12.90;49.60;;;;;;4948744;28;9407;-71
2022/02/15 07:47:51;;;;;;;;;143.50;133.50;13.00;49.40;;;;;;4944194;28;8815;-69
2022/02/15 07:50:18;;;;;;;;;151.25;134.75;13.00;49.50;;;;;;4945585;28;8976;-72
2022/02/15 07:52:45;;;;;;;;;145.00;134.50;12.60;50.50;;;;;;4947157;28;8777;-67
2022/02/15 07:55:14;;;;;;;;;144.00;128.75;12.60;50.80;;;;;;4949831;28;8818;-73
2022/02/15 07:57:41;;;;;;;;;129.75;123.00;12.30;51.60;;;;;;4949197;28;8800;-73
2022/02/15 08:00:08;;;;;;;;;126.25;117.50;12.60;51.50;;;;;;4939992;28;8791;-73
2022/02/15 08:02:33;;;;;;;;;135.75;124.75;12.80;50.90;;;;;;4947689;28;8838;-73
2022/02/15 08:05:00;;;;;;;;;125.50;115.00;13.10;50.30;;;;;;4938106;29;8798;-69
2022/02/15 08:07:26;;;;;;;;;97.25;89.00;13.10;49.70;;;;;;4937774;29;8806;-66
2022/02/15 08:09:51;;;;;;;;;117.25;108.75;13.10;49.90;;;;;;4936112;29;8846;-68
2022/02/15 08:12:18;;;;;;;;;112.25;105.75;13.10;49.80;;;;;;4955036;28;8817;-68
2022/02/15 08:14:45;;;;;;;;;107.00;98.75;12.90;50.50;;;;;;4976624;28;8785;-68
2022/02/15 08:17:12;;;;;;;;;108.50;96.00;13.20;49.90;;;;;;4955603;28;8789;-67
2022/02/15 08:19:38;;;;;;;;;98.75;93.00;13.20;50.00;;;;;;4949243;28;8804;-66
2022/02/15 08:22:04;;;;;;;;;119.50;107.50;13.30;50.30;;;;;;4948440;28;8861;-67
2022/02/15 08:24:31;;;;;;;;;104.25;95.25;13.40;50.10;;;;;;4937854;29;8782;-67
2022/02/15 08:26:57;;;;;;;;;86.25;78.00;13.70;49.80;;;;;;4937562;29;8775;-67
2022/02/15 08:29:23;;;;;;;;;88.50;72.75;13.80;48.80;;;;;;4937565;29;8782;-68
2022/02/15 08:31:50;;;;;;;;;89.50;83.25;13.90;49.00;;;;;;4942205;28;8940;-65
2022/02/15 08:34:16;;;;;;;;;88.50;82.75;13.80;49.30;;;;;;4945979;29;8810;-66
2022/02/15 08:36:42;;;;;;;;;91.75;84.50;13.50;50.20;;;;;;4942351;29;8823;-70
2022/02/15 08:39:08;;;;;;;;;99.50;95.00;13.30;51.20;;;;;;4942177;28;8820;-71
2022/02/15 08:41:34;;;;;;;;;111.25;102.75;13.30;51.50;;;;;;4947494;28;8825;-71
2022/02/15 08:44:00;;;;;;;;;118.50;112.00;12.70;53.40;;;;;;4949624;28;8772;-72
2022/02/15 08:46:27;;;;;;;;;125.25;114.00;12.80;53.70;;;;;;4950024;28;8857;-70
2022/02/15 08:48:52;;;;;;;;;107.25;100.50;13.10;53.10;;;;;;4945770;28;8820;-71
2022/02/15 08:51:20;;;;;;;;;108.50;101.00;13.20;52.80;;;;;;4953198;29;8869;-72
2022/02/15 08:53:49;;;;;;;;;110.25;105.00;13.40;52.60;;;;;;4937917;28;8799;-71
2022/02/15 08:56:16;;;;;;;;;115.00;106.25;13.40;52.20;;;;;;4957360;28;8804;-70
2022/02/15 08:58:42;;;;;;;;;106.00;101.75;13.50;52.30;;;;;;4959470;28;8835;-70
2022/02/15 09:01:09;;;;;;;;;106.25;96.50;13.50;52.10;;;;;;4959953;28;8843;-69
2022/02/15 09:03:35;;;;;;;;;119.25;111.50;14.20;50.60;;;;;;4962673;28;8839;-64
2022/02/15 09:06:01;;;;;;;;;122.50;115.25;14.50;49.50;;;;;;4966333;28;8765;-64
2022/02/15 09:08:28;;;;;;;;;112.00;103.75;14.50;49.40;;;;;;4966219;28;8776;-66
2022/02/15 09:10:53;;;;;;;;;116.75;105.50;14.20;50.70;;;;;;4967032;28;8892;-64
2022/02/15 09:13:19;;;;;;;;;79.75;70.00;14.40;50.30;;;;;;4984680;28;8929;-66
2022/02/15 09:15:45;;;;;;;;;90.50;78.25;14.10;50.40;;;;;;4955737;28;8817;-65
2022/02/15 09:18:11;;;;;;;;;79.50;69.50;14.40;49.80;;;;;;4954010;29;8798;-65
2022/02/15 09:20:38;;;;;;;;;89.00;80.00;14.10;50.50;;;;;;4951997;28;8773;-73
2022/02/15 09:23:05;;;;;;;;;106.50;99.25;14.10;50.70;;;;;;4951920;28;8804;-66
2022/02/15 09:25:31;;;;;;;;;109.75;103.25;14.50;50.00;;;;;;4952534;28;8802;-67
2022/02/15 09:27:58;;;;;;;;;117.25;108.50;14.80;48.80;;;;;;4958182;28;8784;-64
2022/02/15 09:30:27;;;;;;;;;103.75;99.00;15.30;47.60;;;;;;4947447;28;8799;-69
2022/02/15 09:32:53;;;;;;;;;118.75;110.00;15.60;46.30;;;;;;4954661;29;8827;-73
2022/02/15 09:35:19;;;;;;;;;120.75;110.00;15.80;46.60;;;;;;4942296;29;8802;-73
2022/02/15 09:37:45;;;;;;;;;100.25;96.00;16.00;46.80;;;;;;4950153;29;8894;-73
2022/02/15 09:40:12;;;;;;;;;106.25;99.75;15.40;48.00;;;;;;4951590;29;9461;-71
2022/02/15 09:42:39;;;;;;;;;115.50;107.50;14.80;48.60;;;;;;4962829;28;8857;-71
2022/02/15 09:45:07;;;;;;;;;119.25;112.00;14.40;50.60;;;;;;4945202;28;8804;-76
2022/02/15 09:47:35;;;;;;;;;129.75;121.00;13.70;53.00;;;;;;4945990;29;8819;-71
2022/02/15 09:50:05;;;;;;;;;102.75;98.00;13.70;55.60;;;;;;4949900;28;8804;-72
2022/02/15 09:52:30;;;;;;;;;99.25;93.75;13.80;55.20;;;;;;4948379;28;8808;-73
2022/02/15 09:54:57;;;;;;;;;80.75;73.00;13.90;55.10;;;;;;4946128;29;8903;-73
2022/02/15 09:57:26;;;;;;;;;108.25;99.25;13.80;55.60;;;;;;4941877;28;8827;-75
2022/02/15 09:59:54;;;;;;;;;103.00;94.25;14.30;54.00;;;;;;4952567;28;8835;-74
2022/02/15 10:02:25;;;;;;;;;101.50;89.75;14.50;53.90;;;;;;4939487;28;8827;-71
2022/02/15 10:04:55;;;;;;;;;90.25;87.00;14.80;52.70;;;;;;4940913;29;8787;-70
2022/02/15 10:07:22;;;;;;;;;96.00;89.00;15.50;51.30;;;;;;4947499;28;9382;-72
2022/02/15 10:09:50;;;;;;;;;94.50;91.50;15.40;52.40;;;;;;4949073;28;8789;-70
2022/02/15 10:12:16;;;;;;;;;88.75;79.75;15.40;52.20;;;;;;4941961;28;8833;-73
2022/02/15 10:14:44;;;;;;;;;82.00;76.25;15.50;52.00;;;;;;4945013;29;8822;-73
2022/02/15 10:17:13;;;;;;;;;71.50;59.50;15.50;52.70;;;;;;4936772;29;9512;-70
2022/02/15 10:19:40;;;;;;;;;60.50;47.50;15.60;51.70;;;;;;4947395;29;8982;-72
2022/02/15 10:22:07;;;;;;;;;63.50;51.00;15.90;51.10;;;;;;4936391;29;8823;-73
2022/02/15 10:24:35;;;;;;;;;68.25;53.75;16.20;50.00;;;;;;4936530;29;8803;-73
2022/02/15 10:27:11;;;;;;;;;41.25;35.50;16.60;49.60;;;;;;4939063;28;9443;-71
2022/02/15 10:29:40;;;;;;;;;32.67;29.67;16.80;45.30;;;;;;4945025;29;8885;-71
2022/02/15 10:32:16;;;;;;;;;28.00;27.33;17.30;45.10;;;;;;4940752;28;9439;-71
2022/02/15 10:34:56;;;;;;;;;30.33;28.33;17.90;42.90;;;;;;4948122;28;8842;-72
2022/02/15 10:37:26;;;;;;;;;28.00;26.33;18.60;42.00;;;;;;4939644;29;8889;-71
2022/02/15 10:39:56;;;;;;;;;29.00;27.00;18.70;40.70;;;;;;4948715;28;8832;-71
2022/02/15 10:42:25;;;;;;;;;29.33;29.33;20.20;38.60;;;;;;4955589;28;8870;-71
2022/02/15 10:44:59;;;;;;;;;29.67;29.67;23.60;32.70;;;;;;4949032;28;8799;-71
2022/02/15 10:47:34;;;;;;;;;39.00;36.00;26.90;28.90;;;;;;4947287;29;8809;-71
2022/02/15 10:50:04;;;;;;;;;24.00;24.00;30.80;25.30;;;;;;4939676;29;8828;-72
2022/02/15 10:52:30;;;;;;;;;37.00;34.00;31.60;23.00;;;;;;4956138;28;8816;-71
2022/02/15 10:54:56;;;;;;;;;21.50;21.50;31.40;22.70;;;;;;4958268;28;8790;-70
2022/02/15 10:57:23;;;;;;;;;16.50;16.50;33.20;21.70;;;;;;4958610;28;11573;-71
2022/02/15 10:59:52;;;;;;;;;23.50;23.50;33.50;20.70;;;;;;4958607;28;11552;-71
2022/02/15 11:02:26;;;;;;;;;18.75;18.75;34.10;20.50;;;;;;4950456;28;11622;-71
2022/02/15 11:04:55;;;;;;;;;16.25;16.25;32.50;20.90;;;;;;4939077;29;12380;-71
2022/02/15 11:07:27;;;;;;;;;13.25;13.25;33.60;20.30;;;;;;4938260;29;11576;-71
2022/02/15 11:10:00;;;;;;;;;10.75;10.75;33.70;20.00;;;;;;4938309;29;11614;-72
2022/02/15 11:12:50;;;;;;;;;12.25;12.25;34.70;19.10;;;;;;4956808;28;11566;-72
2022/02/15 11:15:34;;;;;;;;;11.00;11.00;37.60;17.50;;;;;;4949673;29;11581;-72
2022/02/15 11:18:02;;;;;;;;;10.75;10.75;35.50;17.90;;;;;;4941853;28;11629;-70
2022/02/15 11:20:50;;;;;;;;;14.00;14.00;33.90;18.70;;;;;;4951549;28;11665;-71
2022/02/15 11:23:21;;;;;;;;;15.00;15.00;34.80;18.60;;;;;;4941437;28;11551;-70
2022/02/15 11:25:49;;;;;;;;;16.50;16.50;33.70;19.50;;;;;;4957455;28;11554;-70
2022/02/15 11:28:17;;;;;;;;;10.75;10.75;32.60;19.40;;;;;;4957392;28;11586;-70
2022/02/15 11:30:51;;;;;;;;;14.50;14.50;31.10;20.00;;;;;;4954187;28;11595;-71
2022/02/15 11:33:27;;;;;;;;;14.50;14.50;31.40;21.20;;;;;;4947733;28;11567;-70
2022/02/15 11:36:16;;;;;;;;;27.00;27.00;34.00;19.40;;;;;;4939153;28;11590;-69
2022/02/15 11:38:57;;;;;;;;;15.00;15.00;36.10;18.40;;;;;;4938308;29;11609;-70
2022/02/15 11:41:29;;;;;;;;;14.75;14.75;35.00;18.00;;;;;;4946530;29;11704;-69
2022/02/15 11:44:05;;;;;;;;;14.00;14.00;34.20;18.50;;;;;;4938529;29;11594;-69
2022/02/15 11:46:35;;;;;;;;;18.00;18.00;37.60;17.70;;;;;;4956491;28;11569;-71
2022/02/15 11:49:10;;;;;;;;;15.00;15.00;37.00;17.30;;;;;;4957090;28;11580;-73
2022/02/15 11:51:37;;;;;;;;;19.00;19.00;37.90;17.20;;;;;;4953447;28;11599;-68
2022/02/15 11:54:09;;;;;;;;;17.75;17.75;38.20;16.80;;;;;;4937761;29;11662;-69
2022/02/15 11:56:36;;;;;;;;;15.75;15.75;39.80;15.80;;;;;;4947157;28;11622;-68
2022/02/15 11:59:13;;;;;;;;;17.50;17.50;41.50;14.70;;;;;;4944693;28;11641;-68
2022/02/15 12:01:42;;;;;;;;;12.00;12.00;40.10;14.20;;;;;;4957101;28;11603;-68
2022/02/15 12:04:13;;;;;;;;;9.00;9.00;38.30;15.20;;;;;;4957125;28;11781;-69
2022/02/15 12:06:42;;;;;;;;;10.50;10.50;37.90;15.10;;;;;;4957104;28;11531;-69
2022/02/15 12:09:09;;;;;;;;;10.00;10.00;37.90;15.70;;;;;;4956918;28;11522;-68
2022/02/15 12:11:40;;;;;;;;;11.00;11.00;37.70;15.30;;;;;;4956994;28;11543;-68
2022/02/15 12:14:11;;;;;;;;;5.00;5.00;40.40;14.50;;;;;;4956827;28;11633;-70
2022/02/15 12:16:52;;;;;;;;;7.00;7.00;43.50;13.80;;;;;;4956538;28;11519;-66
2022/02/15 12:19:33;;;;;;;;;6.50;6.50;44.60;12.90;;;;;;4956909;28;12184;-68
2022/02/15 12:22:14;;;;;;;;;14.50;14.50;40.90;13.00;;;;;;4956274;28;11532;-70
2022/02/15 12:24:40;;;;;;;;;16.50;16.50;34.80;15.80;;;;;;4954721;28;11585;-69
2022/02/15 12:27:08;;;;;;;;;11.00;11.00;30.20;19.50;;;;;;4955511;28;11556;-69
2022/02/15 12:29:35;;;;;;;;;15.50;15.50;27.40;21.20;;;;;;4956041;28;8906;-68
2022/02/15 12:32:06;;;;;;;;;15.50;15.50;26.70;22.50;;;;;;4955333;28;12193;-68
2022/02/15 12:34:34;;;;;;;;;13.00;13.00;25.60;23.40;;;;;;4955835;28;11580;-69
2022/02/15 12:37:01;;;;;;;;;15.00;15.00;26.10;23.40;;;;;;4954480;28;11551;-69
2022/02/15 12:39:35;;;;;;;;;13.50;13.50;29.80;22.30;;;;;;4955299;28;11623;-69